createdAt,value
2022-08-05T00:01:20.966Z,43.72
2022-08-05T00:03:55.040Z,43.59
2022-08-05T00:06:33.419Z,44.34
2022-08-05T00:09:14.794Z,44.62
2022-08-05T00:11:56.213Z,44.52
2022-08-05T00:14:33.639Z,43.85
2022-08-05T00:17:06.344Z,43.97
2022-08-05T00:19:57.478Z,44.42
2022-08-05T00:22:36.770Z,44.57
2022-08-05T00:25:12.673Z,44.13
2022-08-05T00:27:45.679Z,44.90
2022-08-05T00:30:18.296Z,44.57
2022-08-05T00:33:01.947Z,44.67
2022-08-05T00:35:34.970Z,44.10
2022-08-05T00:38:28.710Z,44.62
2022-08-05T00:41:05.578Z,44.78
2022-08-05T00:43:49.943Z,44.58
2022-08-05T00:46:42.440Z,44.74
2022-08-05T00:49:19.126Z,44.37
2022-08-05T00:51:52.408Z,44.55
2022-08-05T00:54:27.930Z,44.69
2022-08-05T00:57:04.560Z,45.11
2022-08-05T00:59:44.179Z,44.69
2022-08-05T01:02:17.549Z,44.69
2022-08-05T01:04:50.322Z,44.34
2022-08-05T01:07:23.365Z,45.14
2022-08-05T01:10:09.160Z,45.04
2022-08-05T01:13:05.042Z,44.72
2022-08-05T01:15:48.027Z,44.56
2022-08-05T01:18:25.076Z,44.95
2022-08-05T01:21:08.973Z,44.82
2022-08-05T01:24:02.579Z,44.99
2022-08-05T01:26:59.038Z,44.91
2022-08-05T01:29:37.647Z,45.44
2022-08-05T01:32:18.428Z,45.49
2022-08-05T01:34:58.037Z,44.90
2022-08-05T01:37:38.267Z,45.01
2022-08-05T01:40:19.413Z,45.06
2022-08-05T01:43:03.767Z,45.54
2022-08-05T01:45:43.044Z,45.19
2022-08-05T01:48:18.329Z,45.23
2022-08-05T01:50:52.409Z,45.39
2022-08-05T01:53:57.582Z,45.17
2022-08-05T01:58:29.944Z,44.90
2022-08-05T01:59:16.104Z,45.54
2022-08-05T02:01:54.804Z,45.00
2022-08-05T02:04:30.900Z,45.50
2022-08-05T02:07:04.064Z,45.44
2022-08-05T02:09:39.603Z,45.53
2022-08-05T02:12:22.483Z,45.71
2022-08-05T02:15:06.388Z,45.52
2022-08-05T02:18:31.408Z,45.12
2022-08-05T02:20:50.508Z,45.00
2022-08-05T02:23:27.201Z,45.76
2022-08-05T02:26:03.832Z,45.62
2022-08-05T02:28:41.740Z,45.99
2022-08-05T02:31:24.912Z,45.90
2022-08-05T02:34:05.026Z,45.59
2022-08-05T02:36:43.527Z,45.46
2022-08-05T02:39:21.347Z,46.15
2022-08-05T02:41:58.224Z,46.18
2022-08-05T02:44:36.597Z,46.22
2022-08-05T02:47:14.064Z,46.00
2022-08-05T02:49:50.772Z,46.16
2022-08-05T02:52:29.415Z,45.23
2022-08-05T02:55:05.243Z,46.10
2022-08-05T02:58:10.788Z,46.04
2022-08-05T03:00:36.665Z,45.70
2022-08-05T03:03:14.257Z,45.74
2022-08-05T03:06:55.888Z,45.90
2022-08-05T03:08:44.969Z,45.66
2022-08-05T03:11:54.769Z,45.27
2022-08-05T03:14:13.390Z,44.86
2022-08-05T03:16:46.536Z,45.37
2022-08-05T03:19:34.134Z,45.24
2022-08-05T03:22:16.299Z,44.98
2022-08-05T03:24:52.340Z,44.86
2022-08-05T03:27:39.387Z,45.16
2022-08-05T03:30:18.970Z,44.88
2022-08-05T03:32:54.308Z,45.09
2022-08-05T03:35:28.380Z,44.86
2022-08-05T03:38:03.610Z,44.64
2022-08-05T03:40:36.403Z,44.85
2022-08-05T03:43:58.743Z,44.75
2022-08-05T03:46:08.266Z,44.81
2022-08-05T03:48:41.425Z,44.92
2022-08-05T03:52:38.945Z,44.77
2022-08-05T03:55:53.790Z,44.62
2022-08-05T03:57:18.260Z,44.71
2022-08-05T03:59:56.616Z,44.61
2022-08-05T04:02:37.777Z,44.88
2022-08-05T04:05:13.914Z,44.72
2022-08-05T04:07:58.161Z,45.03
2022-08-05T04:10:38.137Z,44.84
2022-08-05T04:13:11.568Z,44.70
2022-08-05T04:15:53.019Z,44.62
2022-08-05T04:18:38.769Z,44.81
2022-08-05T04:21:12.830Z,45.13
2022-08-05T04:24:09.049Z,44.70
2022-08-05T04:26:49.085Z,44.79
2022-08-05T04:29:21.961Z,44.87
2022-08-05T04:31:56.849Z,44.85
2022-08-05T04:34:32.945Z,45.28
2022-08-05T04:37:06.808Z,45.04
2022-08-05T04:39:40.114Z,45.13
2022-08-05T04:42:14.320Z,44.75
2022-08-05T04:44:47.151Z,44.88
2022-08-05T04:47:20.215Z,45.52
2022-08-05T04:50:02.403Z,45.60
2022-08-05T04:52:44.125Z,45.55
2022-08-05T04:55:17.616Z,45.36
2022-08-05T04:58:13.556Z,45.42
2022-08-05T05:00:46.462Z,45.91
2022-08-05T05:03:23.767Z,45.97
2022-08-05T05:06:40.090Z,45.83
2022-08-05T05:08:50.096Z,46.24
2022-08-05T05:11:23.772Z,46.17
2022-08-05T05:14:16.429Z,45.78
2022-08-05T05:16:50.525Z,46.02
2022-08-05T05:19:27.538Z,46.23
2022-08-05T05:22:24.514Z,46.25
2022-08-05T05:25:01.338Z,46.57
2022-08-05T05:27:53.945Z,46.30
2022-08-05T05:30:31.413Z,46.35
2022-08-05T05:33:15.851Z,46.42
2022-08-05T05:35:51.849Z,45.96
2022-08-05T05:38:27.259Z,45.04
2022-08-05T05:41:00.412Z,45.26
2022-08-05T05:43:57.549Z,44.98
2022-08-05T05:46:28.541Z,44.72
2022-08-05T05:49:06.453Z,45.25
2022-08-05T05:51:54.389Z,44.63
2022-08-05T05:54:35.483Z,45.06
2022-08-05T05:57:20.836Z,45.20
2022-08-05T05:59:53.748Z,44.79
2022-08-05T06:02:32.588Z,44.87
2022-08-05T06:05:16.719Z,45.21
2022-08-05T06:08:01.193Z,46.11
2022-08-05T06:10:37.512Z,47.07
2022-08-05T06:13:21.955Z,46.35
2022-08-05T06:16:29.542Z,46.30
2022-08-05T06:18:50.436Z,46.88
2022-08-05T06:21:35.739Z,46.99
2022-08-05T06:24:12.233Z,46.85
2022-08-05T06:26:52.061Z,47.46
2022-08-05T06:29:46.968Z,46.54
2022-08-05T06:32:26.245Z,46.58
2022-08-05T06:35:05.870Z,46.70
2022-08-05T06:37:58.354Z,46.65
2022-08-05T06:40:32.597Z,45.58
2022-08-05T06:43:05.706Z,46.83
2022-08-05T06:46:06.945Z,47.76
2022-08-05T06:48:55.689Z,47.53
2022-08-05T06:51:33.279Z,48.13
2022-08-05T06:54:06.164Z,46.28
2022-08-05T06:56:40.756Z,46.36
2022-08-05T06:59:27.891Z,46.89
2022-08-05T07:02:00.558Z,45.29
2022-08-05T07:04:33.230Z,44.86
2022-08-05T07:07:08.059Z,44.93
2022-08-05T07:09:40.959Z,44.47
2022-08-05T07:12:29.949Z,44.63
2022-08-05T07:15:34.634Z,43.54
2022-08-05T07:18:20.381Z,43.76
2022-08-05T07:21:04.736Z,46.46
2022-08-05T07:23:49.136Z,46.38
2022-08-05T07:26:25.592Z,45.80
2022-08-05T07:28:59.746Z,46.65
2022-08-05T07:31:40.856Z,45.28
2022-08-05T07:34:28.721Z,44.92
2022-08-05T07:40:26.887Z,44.72
2022-08-05T07:42:34.046Z,44.61
2022-08-05T07:45:10.262Z,44.24
2022-08-05T07:47:43.883Z,44.02
2022-08-05T07:50:16.847Z,43.84
2022-08-05T07:52:50.324Z,43.78
2022-08-05T07:55:44.502Z,43.54
2022-08-05T07:58:59.013Z,43.67
2022-08-05T08:01:12.109Z,43.95
2022-08-05T08:03:45.427Z,43.93
2022-08-05T08:06:24.087Z,43.74
2022-08-05T08:09:01.109Z,44.03
2022-08-05T08:11:48.188Z,43.95
2022-08-05T08:14:27.838Z,44.11
2022-08-05T08:17:00.503Z,43.90
2022-08-05T08:20:23.478Z,43.93
2022-08-05T08:22:27.581Z,43.75
2022-08-05T08:25:03.038Z,43.71
2022-08-05T08:27:45.187Z,43.84
2022-08-05T08:30:32.483Z,43.44
2022-08-05T08:33:13.851Z,43.45
2022-08-05T08:35:52.379Z,43.62
2022-08-05T08:38:32.330Z,43.58
2022-08-05T08:41:13.955Z,43.16
2022-08-05T08:45:18.095Z,43.44
2022-08-05T08:46:42.496Z,42.80
2022-08-05T08:50:07.615Z,43.23
2022-08-05T08:52:14.238Z,42.91
2022-08-05T08:54:48.154Z,43.34
2022-08-05T08:57:22.684Z,43.31
2022-08-05T08:59:59.034Z,43.13
2022-08-05T09:02:31.809Z,43.20
2022-08-05T09:05:16.623Z,43.79
2022-08-05T09:07:57.699Z,43.21
2022-08-05T09:10:31.943Z,43.40
2022-08-05T09:13:05.448Z,43.35
2022-08-05T09:15:42.338Z,43.27
2022-08-05T09:18:16.356Z,43.70
2022-08-05T09:20:51.291Z,43.36
2022-08-05T09:23:27.236Z,43.06
2022-08-05T09:26:09.491Z,43.31
2022-08-05T09:28:42.241Z,43.33
2022-08-05T09:31:22.969Z,43.19
2022-08-05T09:34:10.472Z,43.35
2022-08-05T09:36:56.119Z,43.39
2022-08-05T09:39:45.234Z,42.96
2022-08-05T09:42:24.057Z,42.33
2022-08-05T09:46:02.644Z,41.75
2022-08-05T09:48:20.398Z,42.69
2022-08-05T09:50:56.404Z,42.87
2022-08-05T09:53:53.904Z,41.42
2022-08-05T09:56:28.168Z,41.90
2022-08-05T09:59:03.205Z,42.69
2022-08-05T10:01:40.881Z,42.20
2022-08-05T10:04:28.665Z,41.92
2022-08-05T10:07:20.932Z,42.24
2022-08-05T10:10:04.388Z,42.10
2022-08-05T10:12:50.397Z,42.48
2022-08-05T10:15:26.217Z,42.86
2022-08-05T10:18:22.536Z,42.91
2022-08-05T10:20:59.195Z,41.52
2022-08-05T10:23:59.645Z,41.81
2022-08-05T10:26:33.925Z,42.45
2022-08-05T10:29:08.197Z,42.02
2022-08-05T10:32:51.665Z,41.33
2022-08-05T10:34:36.078Z,41.42
2022-08-05T10:37:15.049Z,41.99
2022-08-05T10:40:03.196Z,40.88
2022-08-05T10:42:38.543Z,40.95
2022-08-05T10:45:21.206Z,40.53
2022-08-05T10:48:31.127Z,39.59
2022-08-05T10:51:04.516Z,40.22
2022-08-05T10:53:42.550Z,40.27
2022-08-05T10:56:25.237Z,39.39
2022-08-05T10:59:12.624Z,39.78
2022-08-05T11:02:14.141Z,39.69
2022-08-05T11:04:49.089Z,40.67
2022-08-05T11:07:33.157Z,40.41
2022-08-05T11:10:27.140Z,39.13
2022-08-05T11:13:01.693Z,40.03
2022-08-05T11:16:00.642Z,39.82
2022-08-05T11:18:34.635Z,40.30
2022-08-05T11:21:48.851Z,40.21
2022-08-05T11:24:30.040Z,38.60
2022-08-05T11:27:51.025Z,38.95
2022-08-05T11:30:25.125Z,39.47
2022-08-05T11:33:26.098Z,39.50
2022-08-05T11:36:34.328Z,38.79
2022-08-05T11:39:13.627Z,38.60
2022-08-05T11:42:01.581Z,38.30
2022-08-05T11:44:53.855Z,38.41
2022-08-05T11:47:48.216Z,37.84
2022-08-05T11:50:21.253Z,38.84
2022-08-05T11:52:57.559Z,37.34
2022-08-05T11:55:32.047Z,38.48
2022-08-05T11:58:12.035Z,37.75
2022-08-05T12:00:47.059Z,37.76
2022-08-05T12:03:31.440Z,37.14
2022-08-05T12:06:10.222Z,37.45
2022-08-05T12:08:50.870Z,36.43
2022-08-05T12:11:28.426Z,36.12
2022-08-05T12:14:13.463Z,36.73
2022-08-05T12:16:48.187Z,36.25
2022-08-05T12:20:26.354Z,35.71
2022-08-05T12:22:17.942Z,35.76
2022-08-05T12:24:53.853Z,35.60
2022-08-05T12:27:32.924Z,36.06
2022-08-05T12:30:08.360Z,36.56
2022-08-05T12:32:50.671Z,36.17
2022-08-05T12:35:24.577Z,35.65
2022-08-05T12:38:10.304Z,35.78
2022-08-05T12:40:44.306Z,34.90
2022-08-05T12:43:20.944Z,35.14
2022-08-05T12:45:55.289Z,34.86
2022-08-05T12:48:39.385Z,35.97
2022-08-05T12:52:10.672Z,35.83
2022-08-05T12:54:16.849Z,35.53
2022-08-05T12:56:59.197Z,35.19
2022-08-05T12:59:46.595Z,34.87
2022-08-05T13:02:30.557Z,34.18
2022-08-05T13:05:07.977Z,35.15
2022-08-05T13:07:59.110Z,35.34
2022-08-05T13:10:33.930Z,35.22
2022-08-05T13:13:08.845Z,34.83
2022-08-05T13:15:50.917Z,36.03
2022-08-05T13:18:24.149Z,35.54
2022-08-05T13:20:58.302Z,35.26
2022-08-05T13:23:30.977Z,34.96
2022-08-05T13:26:05.598Z,35.37
2022-08-05T13:28:44.038Z,35.77
2022-08-05T13:31:17.041Z,35.22
2022-08-05T13:34:24.870Z,35.14
2022-08-05T13:37:00.430Z,35.52
2022-08-05T13:40:15.774Z,35.78
2022-08-05T13:42:26.822Z,35.61
2022-08-05T13:44:59.560Z,34.93
2022-08-05T13:47:35.579Z,34.92
2022-08-05T13:50:13.532Z,35.58
2022-08-05T13:52:50.409Z,35.19
2022-08-05T13:55:41.896Z,35.05
2022-08-05T13:58:30.254Z,35.21
2022-08-05T14:01:03.350Z,35.06
2022-08-05T14:03:36.763Z,34.65
2022-08-05T14:06:25.785Z,35.33
2022-08-05T14:09:01.351Z,34.60
2022-08-05T14:11:35.013Z,34.92
2022-08-05T14:14:33.602Z,33.92
2022-08-05T14:17:06.731Z,34.17
2022-08-05T14:19:55.198Z,33.16
2022-08-05T14:22:30.156Z,34.14
2022-08-05T14:25:06.373Z,33.32
2022-08-05T14:27:54.804Z,33.35
2022-08-05T14:30:28.361Z,34.02
2022-08-05T14:33:03.477Z,33.10
2022-08-05T14:35:50.066Z,33.40
2022-08-05T14:38:32.655Z,32.93
2022-08-05T14:41:09.810Z,31.83
2022-08-05T14:44:01.615Z,31.29
2022-08-05T14:46:36.002Z,30.94
2022-08-05T14:49:08.902Z,32.33
2022-08-05T14:51:42.973Z,32.39
2022-08-05T14:54:27.746Z,32.03
2022-08-05T14:57:05.412Z,32.58
2022-08-05T14:59:42.563Z,33.07
2022-08-05T15:02:16.064Z,32.55
2022-08-05T15:04:49.866Z,32.72
2022-08-05T15:08:11.201Z,32.90
2022-08-05T15:10:15.486Z,32.81
2022-08-05T15:13:00.327Z,31.82
2022-08-05T15:15:54.572Z,31.77
2022-08-05T15:18:27.178Z,31.61
2022-08-05T15:21:07.479Z,32.49
2022-08-05T15:23:40.699Z,33.38
2022-08-05T15:26:13.536Z,33.06
2022-08-05T15:28:52.075Z,33.04
2022-08-05T15:31:24.961Z,32.22
2022-08-05T15:34:32.470Z,32.00
2022-08-05T15:37:06.303Z,31.37
2022-08-05T15:40:59.024Z,31.21
2022-08-05T15:42:55.195Z,31.51
2022-08-05T15:45:38.314Z,32.04
2022-08-05T15:48:14.345Z,31.30
2022-08-05T15:50:48.394Z,31.86
2022-08-05T15:53:21.389Z,31.07
2022-08-05T15:56:02.818Z,31.90
2022-08-05T15:58:37.259Z,32.80
2022-08-05T16:01:17.020Z,32.13
2022-08-05T16:03:51.056Z,32.36
2022-08-05T16:06:24.516Z,32.05
2022-08-05T16:08:58.020Z,33.43
2022-08-05T16:11:42.635Z,32.38
2022-08-05T16:14:17.529Z,32.00
2022-08-05T16:16:51.922Z,32.52
2022-08-05T16:20:05.323Z,32.86
2022-08-05T16:22:19.317Z,32.17
2022-08-05T16:25:00.407Z,31.99
2022-08-05T16:28:00.413Z,32.47
2022-08-05T16:30:32.435Z,32.46
2022-08-05T16:33:06.587Z,31.67
2022-08-05T16:35:43.180Z,31.46
2022-08-05T16:38:25.649Z,31.34
2022-08-05T16:41:02.642Z,31.09
2022-08-05T16:43:56.404Z,31.58
2022-08-05T16:46:29.352Z,31.05
2022-08-05T16:49:03.662Z,30.87
2022-08-05T16:51:42.699Z,31.81
2022-08-05T16:54:30.331Z,31.55
2022-08-05T16:57:14.891Z,31.97
2022-08-05T17:00:02.743Z,30.97
2022-08-05T17:02:38.827Z,30.93
2022-08-05T17:05:13.337Z,31.80
2022-08-05T17:07:54.671Z,30.87
2022-08-05T17:10:30.474Z,30.77
2022-08-05T17:13:03.643Z,30.92
2022-08-05T17:15:48.708Z,31.87
2022-08-05T17:18:23.760Z,31.47
2022-08-05T17:20:57.983Z,31.97
2022-08-05T17:24:04.899Z,31.74
2022-08-05T17:26:23.922Z,32.49
2022-08-05T17:28:57.141Z,32.92
2022-08-05T17:31:57.229Z,33.81
2022-08-05T17:34:29.521Z,33.73
2022-08-05T17:37:12.821Z,33.74
2022-08-05T17:39:57.503Z,33.16
2022-08-05T17:42:33.088Z,33.30
2022-08-05T17:45:17.680Z,33.11
2022-08-05T17:47:55.775Z,33.32
2022-08-05T17:50:30.830Z,34.07
2022-08-05T17:53:08.351Z,34.14
2022-08-05T17:55:41.701Z,33.87
2022-08-05T17:58:16.440Z,32.26
2022-08-05T18:00:54.226Z,32.46
2022-08-05T18:06:29.346Z,31.89
2022-08-05T18:09:05.535Z,32.42
2022-08-05T18:11:52.147Z,32.09
2022-08-05T18:14:25.719Z,33.12
2022-08-05T18:16:58.492Z,32.99
2022-08-05T18:19:33.279Z,32.28
2022-08-05T18:22:07.366Z,32.12
2022-08-05T18:24:42.319Z,32.27
2022-08-05T18:27:18.620Z,33.76
2022-08-05T18:29:54.527Z,34.50
2022-08-05T18:32:27.644Z,35.05
2022-08-05T18:35:01.338Z,34.74
2022-08-05T18:37:39.940Z,34.89
2022-08-05T18:40:34.636Z,34.81
2022-08-05T18:43:09.136Z,34.43
2022-08-05T18:45:49.548Z,34.42
2022-08-05T18:48:31.477Z,34.36
2022-08-05T18:52:04.147Z,34.06
2022-08-05T18:54:16.190Z,34.63
2022-08-05T18:56:51.151Z,34.58
2022-08-05T18:59:43.238Z,34.83
2022-08-05T19:02:26.592Z,34.92
2022-08-05T19:06:11.671Z,35.04
2022-08-05T19:07:56.180Z,35.31
2022-08-05T19:10:31.465Z,35.78
2022-08-05T19:13:06.107Z,35.25
2022-08-05T19:15:59.222Z,35.43
2022-08-05T19:18:35.956Z,35.55
2022-08-05T19:21:12.459Z,35.74
2022-08-05T19:24:06.758Z,36.11
2022-08-05T19:26:43.848Z,36.30
2022-08-05T19:29:35.992Z,36.20
2022-08-05T19:32:11.401Z,36.16
2022-08-05T19:34:54.869Z,36.21
2022-08-05T19:37:34.996Z,36.44
2022-08-05T19:40:24.176Z,36.54
2022-08-05T19:43:04.719Z,36.14
2022-08-05T19:45:39.124Z,36.34
2022-08-05T19:48:27.295Z,36.66
2022-08-05T19:50:59.924Z,36.66
2022-08-05T19:54:05.012Z,36.64
2022-08-05T19:56:29.898Z,36.69
2022-08-05T19:59:21.414Z,36.96
2022-08-05T20:02:02.511Z,37.04
2022-08-05T20:04:35.711Z,36.88
2022-08-05T20:07:13.069Z,37.28
2022-08-05T20:09:54.350Z,37.24
2022-08-05T20:12:28.316Z,37.23
2022-08-05T20:15:01.194Z,37.17
2022-08-05T20:17:35.365Z,37.29
2022-08-05T20:20:11.110Z,37.10
2022-08-05T20:22:44.165Z,37.59
2022-08-05T20:25:19.839Z,37.33
2022-08-05T20:27:56.149Z,37.66
2022-08-05T20:30:31.057Z,37.67
2022-08-05T20:33:05.193Z,38.06
2022-08-05T20:35:40.453Z,37.74
2022-08-05T20:38:26.664Z,37.77
2022-08-05T20:41:00.604Z,37.64
2022-08-05T20:43:58.789Z,37.86
2022-08-05T20:46:30.509Z,37.96
2022-08-05T20:49:06.303Z,38.02
2022-08-05T20:51:40.525Z,38.34
2022-08-05T20:54:14.163Z,38.34
2022-08-05T20:56:47.178Z,38.29
2022-08-05T20:59:27.094Z,38.43
2022-08-05T21:02:18.092Z,38.20
2022-08-05T21:04:52.356Z,38.32
2022-08-05T21:07:25.359Z,38.42
2022-08-05T21:10:18.203Z,38.44
2022-08-05T21:12:58.049Z,38.68
2022-08-05T21:15:46.136Z,38.74
2022-08-05T21:18:24.310Z,38.74
2022-08-05T21:21:00.372Z,38.88
2022-08-05T21:23:37.302Z,38.76
2022-08-05T21:26:14.405Z,38.90
2022-08-05T21:28:51.002Z,38.92
2022-08-05T21:31:23.960Z,38.82
2022-08-05T21:33:56.988Z,38.99
2022-08-05T21:36:33.521Z,38.96
2022-08-05T21:39:07.972Z,39.52
2022-08-05T21:41:40.760Z,39.22
2022-08-05T21:44:13.485Z,39.36
2022-08-05T21:46:48.641Z,39.09
2022-08-05T21:50:00.472Z,39.16
2022-08-05T21:52:28.461Z,39.49
2022-08-05T21:55:06.516Z,39.48
2022-08-05T21:57:42.401Z,39.66
2022-08-05T22:00:16.389Z,39.47
2022-08-05T22:02:49.142Z,39.64
2022-08-05T22:05:22.329Z,39.61
2022-08-05T22:08:02.410Z,39.61
2022-08-05T22:10:35.452Z,39.71
2022-08-05T22:14:06.358Z,39.92
2022-08-05T22:16:11.436Z,39.82
2022-08-05T22:18:53.713Z,39.50
2022-08-05T22:21:31.260Z,39.83
2022-08-05T22:24:39.463Z,39.94
2022-08-05T22:28:09.216Z,39.95
2022-08-05T22:30:55.391Z,40.19
2022-08-05T22:33:56.890Z,40.18
2022-08-05T22:36:23.833Z,40.03
2022-08-05T22:38:57.275Z,40.02
2022-08-05T22:42:11.511Z,40.32
2022-08-05T22:44:36.911Z,40.11
2022-08-05T22:47:09.697Z,40.21
2022-08-05T22:50:18.033Z,40.27
2022-08-05T22:52:38.151Z,40.36
2022-08-05T22:55:19.512Z,40.41
2022-08-05T22:57:55.583Z,40.47
2022-08-05T23:00:31.365Z,40.48
2022-08-05T23:03:04.484Z,40.14
2022-08-05T23:05:37.504Z,40.40
2022-08-05T23:08:12.346Z,40.41
2022-08-05T23:10:47.900Z,40.56
2022-08-05T23:13:23.169Z,40.53
2022-08-05T23:15:56.162Z,40.37
2022-08-05T23:18:28.870Z,40.75
2022-08-05T23:21:01.547Z,40.66
2022-08-05T23:23:35.899Z,40.74
2022-08-05T23:26:08.615Z,40.58
2022-08-05T23:28:43.043Z,40.69
2022-08-05T23:31:17.933Z,40.97
2022-08-05T23:34:03.078Z,41.01
2022-08-05T23:36:44.201Z,40.88
2022-08-05T23:39:32.268Z,40.86
2022-08-05T23:42:14.463Z,40.91
2022-08-05T23:44:54.305Z,41.00
2022-08-05T23:47:27.477Z,41.03
2022-08-05T23:50:09.632Z,41.19
2022-08-05T23:52:50.057Z,40.99
2022-08-05T23:55:30.866Z,41.11
2022-08-05T23:58:04.034Z,41.04
